createdAt,value
2022-11-26T00:01:14.939Z,96320.50
2022-11-26T00:03:42.946Z,96322.97
2022-11-26T00:06:26.950Z,96333.41
2022-11-26T00:08:54.653Z,96316.66
2022-11-26T00:11:22.458Z,96313.16
2022-11-26T00:13:50.164Z,96315.25
2022-11-26T00:16:17.909Z,96325.91
2022-11-26T00:18:45.610Z,96319.47
2022-11-26T00:21:19.678Z,96316.63
2022-11-26T00:23:48.812Z,96319.31
2022-11-26T00:26:19.351Z,96323.56
2022-11-26T00:28:51.689Z,96326.81
2022-11-26T00:31:19.530Z,96325.31
2022-11-26T00:33:47.816Z,96331.28
2022-11-26T00:36:19.837Z,96330.69
2022-11-26T00:38:54.153Z,96338.75
2022-11-26T00:41:24.055Z,96339.34
2022-11-26T00:43:52.317Z,96343.47
2022-11-26T00:46:22.069Z,96350.13
2022-11-26T00:48:50.008Z,96346.38
2022-11-26T00:51:20.133Z,96351.16
2022-11-26T00:53:50.089Z,96353.88
2022-11-26T00:56:19.904Z,96354.69
2022-11-26T00:58:48.925Z,96347.88
2022-11-26T01:01:21.250Z,96353.50
2022-11-26T01:03:48.995Z,96355.59
2022-11-26T01:06:19.816Z,96365.31
2022-11-26T01:08:49.568Z,96375.41
2022-11-26T01:11:19.207Z,96369.19
2022-11-26T01:13:50.064Z,96372.13
2022-11-26T01:16:21.981Z,96379.72
2022-11-26T01:18:51.356Z,96383.59
2022-11-26T01:21:19.852Z,96380.44
2022-11-26T01:23:49.137Z,96382.88
2022-11-26T01:26:18.539Z,96375.19
2022-11-26T01:28:46.973Z,96384.06
2022-11-26T01:31:17.484Z,96377.63
2022-11-26T01:33:46.257Z,96377.19
2022-11-26T01:36:26.974Z,96381.97
2022-11-26T01:38:58.981Z,96389.00
2022-11-26T01:41:46.292Z,96384.22
2022-11-26T01:44:19.807Z,96379.88
2022-11-26T01:46:50.532Z,96389.38
2022-11-26T01:49:21.422Z,96389.00
2022-11-26T01:51:52.013Z,96392.06
2022-11-26T01:54:21.068Z,96397.53
2022-11-26T01:56:51.807Z,96392.50
2022-11-26T01:59:23.060Z,96403.66
2022-11-26T02:01:52.351Z,96408.81
2022-11-26T02:04:29.432Z,96408.44
2022-11-26T02:06:58.191Z,96407.38
2022-11-26T02:09:29.189Z,96405.47
2022-11-26T02:11:57.352Z,96403.75
2022-11-26T02:14:28.162Z,96406.19
2022-11-26T02:17:21.725Z,96403.50
2022-11-26T02:20:29.119Z,96410.53
2022-11-26T02:23:27.954Z,96416.16
2022-11-26T02:26:28.554Z,96414.06
2022-11-26T02:29:11.197Z,96413.91
2022-11-26T02:31:46.116Z,96419.31
2022-11-26T02:34:19.274Z,96414.38
2022-11-26T02:36:51.012Z,96428.44
2022-11-26T02:39:21.471Z,96423.28
2022-11-26T02:41:51.805Z,96420.00
2022-11-26T02:44:23.399Z,96411.06
2022-11-26T02:46:57.410Z,96420.56
2022-11-26T02:49:25.532Z,96411.06
2022-11-26T02:51:57.183Z,96416.59
2022-11-26T02:54:26.790Z,96412.16
2022-11-26T02:56:55.518Z,96424.56
2022-11-26T02:59:23.555Z,96422.56
2022-11-26T03:01:58.678Z,96428.31
2022-11-26T03:04:29.720Z,96433.44
2022-11-26T03:07:02.868Z,96430.41
2022-11-26T03:09:40.298Z,96440.13
2022-11-26T03:12:08.500Z,96436.41
2022-11-26T03:14:36.498Z,96427.00
2022-11-26T03:17:05.795Z,96441.66
2022-11-26T03:19:33.555Z,96440.47
2022-11-26T03:22:01.244Z,96442.94
2022-11-26T03:24:28.949Z,96447.41
2022-11-26T03:26:56.633Z,96437.25
2022-11-26T03:29:24.464Z,96435.81
2022-11-26T03:31:52.249Z,96439.78
2022-11-26T03:34:23.146Z,96439.94
2022-11-26T03:36:50.926Z,96442.41
2022-11-26T03:39:18.850Z,96430.56
2022-11-26T03:41:46.569Z,96437.00
2022-11-26T03:44:15.390Z,96438.66
2022-11-26T03:46:43.241Z,96448.84
2022-11-26T03:49:10.946Z,96435.38
2022-11-26T03:51:40.076Z,96440.16
2022-11-26T03:54:07.821Z,96448.47
2022-11-26T03:56:35.494Z,96456.78
2022-11-26T03:59:03.140Z,96456.31
2022-11-26T04:01:31.003Z,96461.94
2022-11-26T04:03:58.708Z,96466.25
2022-11-26T04:06:26.528Z,96465.66
2022-11-26T04:08:55.538Z,96468.59
2022-11-26T04:11:23.228Z,96479.94
2022-11-26T04:13:50.895Z,96481.44
2022-11-26T04:16:18.643Z,96489.88
2022-11-26T04:18:46.328Z,96489.41
2022-11-26T04:21:14.163Z,96492.09
2022-11-26T04:23:41.809Z,96500.91
2022-11-26T04:26:10.922Z,96498.22
2022-11-26T04:28:38.631Z,96501.13
2022-11-26T04:31:06.614Z,96505.91
2022-11-26T04:33:34.280Z,96509.66
2022-11-26T04:36:01.988Z,96514.00
2022-11-26T04:38:29.903Z,96513.50
2022-11-26T04:40:57.557Z,96522.03
2022-11-26T04:43:26.604Z,96521.66
2022-11-26T04:45:54.386Z,96520.38
2022-11-26T04:48:22.213Z,96524.72
2022-11-26T04:50:50.682Z,96531.00
2022-11-26T04:53:21.777Z,96535.56
2022-11-26T04:55:50.378Z,96531.47
2022-11-26T04:58:18.551Z,96538.97
2022-11-26T05:00:51.080Z,96534.69
2022-11-26T05:03:19.531Z,96543.13
2022-11-26T05:05:47.699Z,96545.47
2022-11-26T05:08:15.690Z,96546.72
2022-11-26T05:10:43.417Z,96545.91
2022-11-26T05:13:11.197Z,96550.84
2022-11-26T05:15:38.897Z,96557.25
2022-11-26T05:18:07.995Z,96553.91
2022-11-26T05:20:35.672Z,96562.66
2022-11-26T05:23:03.345Z,96563.03
2022-11-26T05:25:31.059Z,96573.25
2022-11-26T05:27:58.768Z,96573.34
2022-11-26T05:30:26.508Z,96581.19
2022-11-26T05:32:54.231Z,96576.41
2022-11-26T05:35:23.413Z,96582.16
2022-11-26T05:37:51.130Z,96577.81
2022-11-26T05:40:19.018Z,96581.31
2022-11-26T05:42:46.834Z,96583.78
2022-11-26T05:45:14.547Z,96587.91
2022-11-26T05:47:42.241Z,96590.22
2022-11-26T05:50:10.885Z,96587.84
2022-11-26T05:52:39.890Z,96586.34
2022-11-26T05:55:09.192Z,96587.75
2022-11-26T05:57:38.530Z,96593.44
2022-11-26T06:00:07.926Z,96593.81
2022-11-26T06:02:35.714Z,96596.03
2022-11-26T06:05:03.764Z,96596.19
2022-11-26T06:07:31.583Z,96600.97
2022-11-26T06:10:00.661Z,96599.03
2022-11-26T06:12:28.335Z,96606.50
2022-11-26T06:14:56.019Z,96599.41
2022-11-26T06:17:23.773Z,96601.63
2022-11-26T06:19:52.297Z,96600.94
2022-11-26T06:22:20.222Z,96609.63
2022-11-26T06:24:48.011Z,96609.84
2022-11-26T06:27:17.056Z,96610.22
2022-11-26T06:29:45.091Z,96612.91
2022-11-26T06:32:12.769Z,96611.03
2022-11-26T06:34:43.761Z,96613.50
2022-11-26T06:37:11.881Z,96606.19
2022-11-26T06:39:39.565Z,96613.72
2022-11-26T06:42:07.236Z,96608.56
2022-11-26T06:44:37.863Z,96607.97
2022-11-26T06:47:05.872Z,96609.47
2022-11-26T06:49:33.652Z,96622.38
2022-11-26T06:52:01.328Z,96632.31
2022-11-26T06:54:29.126Z,96632.59
2022-11-26T06:56:56.874Z,96642.09
2022-11-26T06:59:24.691Z,96648.38
2022-11-26T07:01:53.864Z,96637.16
2022-11-26T07:04:21.616Z,96639.56
2022-11-26T07:06:49.379Z,96647.75
2022-11-26T07:09:17.152Z,96648.00
2022-11-26T07:11:45.117Z,96650.34
2022-11-26T07:14:12.767Z,96651.50
2022-11-26T07:16:40.536Z,96660.88
2022-11-26T07:19:14.964Z,96646.00
2022-11-26T07:21:43.156Z,96658.63
2022-11-26T07:24:11.049Z,96652.56
2022-11-26T07:26:39.478Z,96669.63
2022-11-26T07:29:07.267Z,96669.25
2022-11-26T07:31:36.259Z,96666.63
2022-11-26T07:34:04.083Z,96672.44
2022-11-26T07:36:33.628Z,96677.31
2022-11-26T07:39:03.776Z,96681.13
2022-11-26T07:41:31.997Z,96677.38
2022-11-26T07:43:59.857Z,96672.81
2022-11-26T07:46:28.495Z,96673.66
2022-11-26T07:48:56.865Z,96670.66
2022-11-26T07:51:26.772Z,96672.09
2022-11-26T07:53:56.846Z,96668.19
2022-11-26T07:56:24.553Z,96681.22
2022-11-26T07:58:52.628Z,96679.25
2022-11-26T08:01:22.160Z,96681.13
2022-11-26T08:03:52.024Z,96686.66
2022-11-26T08:06:21.722Z,96684.47
2022-11-26T08:08:49.815Z,96694.34
2022-11-26T08:11:20.668Z,96691.63
2022-11-26T08:13:49.220Z,96695.81
2022-11-26T08:16:17.014Z,96702.78
2022-11-26T08:18:44.821Z,96699.28
2022-11-26T08:21:12.615Z,96701.59
2022-11-26T08:23:41.014Z,96705.88
2022-11-26T08:26:33.641Z,96704.38
2022-11-26T08:29:00.328Z,96707.19
2022-11-26T08:31:28.734Z,96706.03
2022-11-26T08:33:58.276Z,96707.56
2022-11-26T08:36:26.904Z,96705.59
2022-11-26T08:38:54.668Z,96706.66
2022-11-26T08:41:22.702Z,96706.66
2022-11-26T08:44:07.709Z,96707.13
2022-11-26T08:46:37.950Z,96704.34
2022-11-26T08:49:06.774Z,96705.16
2022-11-26T08:51:35.085Z,96705.75
2022-11-26T08:54:03.060Z,96702.97
2022-11-26T08:56:31.170Z,96707.69
2022-11-26T08:58:59.254Z,96710.06
2022-11-26T09:01:28.859Z,96718.66
2022-11-26T09:04:00.374Z,96713.63
2022-11-26T09:06:30.862Z,96715.28
2022-11-26T09:09:18.532Z,96719.50
2022-11-26T09:11:49.365Z,96720.81
2022-11-26T09:14:19.685Z,96719.16
2022-11-26T09:16:47.915Z,96726.53
2022-11-26T09:19:17.826Z,96728.03
2022-11-26T09:21:46.154Z,96737.94
2022-11-26T09:24:14.279Z,96728.22
2022-11-26T09:26:42.236Z,96737.34
2022-11-26T09:29:14.188Z,96741.59
2022-11-26T09:32:00.823Z,96744.66
2022-11-26T09:34:31.284Z,96761.56
2022-11-26T09:36:58.970Z,96766.03
2022-11-26T09:39:26.828Z,96760.63
2022-11-26T09:42:01.775Z,96761.56
2022-11-26T09:44:43.721Z,96765.44
2022-11-26T09:47:16.544Z,96761.56
2022-11-26T09:49:56.280Z,96762.38
2022-11-26T09:52:27.713Z,96760.13
2022-11-26T09:55:03.372Z,96752.25
2022-11-26T09:57:36.816Z,96757.06
2022-11-26T10:00:16.919Z,96750.09
2022-11-26T10:02:44.715Z,96749.13
2022-11-26T10:05:18.468Z,96742.03
2022-11-26T10:08:02.451Z,96743.78
2022-11-26T10:10:38.705Z,96748.44
2022-11-26T10:13:19.793Z,96739.69
2022-11-26T10:15:59.261Z,96740.63
2022-11-26T10:18:36.861Z,96735.53
2022-11-26T10:21:57.057Z,96737.25
2022-11-26T10:24:23.209Z,96730.22
2022-11-26T10:26:51.605Z,96730.53
2022-11-26T10:29:24.378Z,96737.13
2022-11-26T10:31:56.345Z,96733.97
2022-11-26T10:34:33.386Z,96733.31
2022-11-26T10:37:05.488Z,96733.34
2022-11-26T10:39:33.370Z,96744.69
2022-11-26T10:42:05.609Z,96745.41
2022-11-26T10:44:36.990Z,96744.72
2022-11-26T10:47:26.602Z,96742.25
2022-11-26T10:49:55.506Z,96739.19
2022-11-26T10:52:28.116Z,96746.13
2022-11-26T10:55:19.843Z,96739.00
2022-11-26T10:57:52.559Z,96739.44
2022-11-26T11:00:33.626Z,96736.00
2022-11-26T11:03:03.047Z,96729.44
2022-11-26T11:05:31.450Z,96730.69
2022-11-26T11:08:00.750Z,96726.22
2022-11-26T11:10:28.622Z,96719.75
2022-11-26T11:13:11.020Z,96711.03
2022-11-26T11:15:41.054Z,96715.47
2022-11-26T11:18:18.940Z,96708.00
2022-11-26T11:20:55.650Z,96711.28
2022-11-26T11:23:45.819Z,96707.56
2022-11-26T11:26:18.995Z,96704.41
2022-11-26T11:28:49.562Z,96706.28
2022-11-26T11:31:19.352Z,96702.63
2022-11-26T11:33:47.222Z,96703.16
2022-11-26T11:36:29.876Z,96713.25
2022-11-26T11:39:00.694Z,96697.97
2022-11-26T11:41:32.788Z,96698.56
2022-11-26T11:44:17.950Z,96689.28
2022-11-26T11:47:10.858Z,96696.34
2022-11-26T11:50:05.544Z,96698.94
2022-11-26T11:52:45.128Z,96703.88
2022-11-26T11:55:25.946Z,96714.00
2022-11-26T11:58:14.522Z,96711.66
2022-11-26T12:00:49.533Z,96720.94
2022-11-26T12:03:42.420Z,96712.56
2022-11-26T12:06:19.079Z,96706.16
2022-11-26T12:08:57.271Z,96703.09
2022-11-26T12:11:36.487Z,96702.44
2022-11-26T12:14:12.089Z,96699.25
2022-11-26T12:16:48.330Z,96699.56
2022-11-26T12:19:24.530Z,96693.50
2022-11-26T12:21:59.215Z,96697.84
2022-11-26T12:24:36.515Z,96690.13
2022-11-26T12:27:11.338Z,96697.16
2022-11-26T12:29:43.070Z,96707.19
2022-11-26T12:32:16.147Z,96707.91
2022-11-26T12:34:47.959Z,96705.81
2022-11-26T12:37:20.371Z,96711.88
2022-11-26T12:39:54.323Z,96716.56
2022-11-26T12:42:29.970Z,96711.38
2022-11-26T12:45:07.131Z,96707.25
2022-11-26T12:47:39.259Z,96708.16
2022-11-26T12:50:16.349Z,96703.78
2022-11-26T12:52:53.623Z,96701.31
2022-11-26T12:55:27.147Z,96699.75
2022-11-26T12:58:02.189Z,96701.91
2022-11-26T13:00:36.199Z,96694.84
2022-11-26T13:03:05.943Z,96708.88
2022-11-26T13:05:39.265Z,96703.19
2022-11-26T13:08:23.771Z,96713.16
2022-11-26T13:11:10.054Z,96711.84
2022-11-26T13:13:48.993Z,96704.75
2022-11-26T13:16:24.935Z,96714.16
2022-11-26T13:18:57.335Z,96718.50
2022-11-26T13:21:41.174Z,96712.75
2022-11-26T13:24:24.931Z,96715.56
2022-11-26T13:27:08.271Z,96720.16
2022-11-26T13:29:57.791Z,96713.28
2022-11-26T13:32:52.968Z,96705.59
2022-11-26T13:35:37.141Z,96708.19
2022-11-26T13:38:20.677Z,96708.34
2022-11-26T13:41:04.081Z,96708.91
2022-11-26T13:43:55.190Z,96706.06
2022-11-26T13:46:27.209Z,96696.38
2022-11-26T13:49:02.559Z,96702.56
2022-11-26T13:51:37.121Z,96700.72
2022-11-26T13:54:13.340Z,96702.03
2022-11-26T13:56:42.889Z,96695.28
2022-11-26T13:59:17.270Z,96694.50
2022-11-26T14:01:47.350Z,96704.50
2022-11-26T14:04:16.464Z,96700.69
2022-11-26T14:07:21.234Z,96704.28
2022-11-26T14:09:55.010Z,96701.97
2022-11-26T14:12:24.712Z,96703.38
2022-11-26T14:14:52.850Z,96699.28
2022-11-26T14:17:31.115Z,96705.50
2022-11-26T14:20:07.814Z,96708.94
2022-11-26T14:22:37.725Z,96709.31
2022-11-26T14:25:08.445Z,96719.06
2022-11-26T14:27:37.871Z,96713.75
2022-11-26T14:30:20.706Z,96722.56
2022-11-26T14:32:56.731Z,96714.84
2022-11-26T14:35:33.563Z,96722.81
2022-11-26T14:38:04.916Z,96714.94
2022-11-26T14:40:34.762Z,96712.94
2022-11-26T14:43:19.575Z,96715.72
2022-11-26T14:45:49.511Z,96713.47
2022-11-26T14:48:27.248Z,96715.94
2022-11-26T14:50:57.564Z,96719.25
2022-11-26T14:53:28.646Z,96720.13
2022-11-26T14:55:57.085Z,96722.16
2022-11-26T14:58:31.768Z,96726.38
2022-11-26T15:01:09.276Z,96734.84
2022-11-26T15:03:38.751Z,96738.97
2022-11-26T15:06:06.828Z,96739.06
2022-11-26T15:08:34.567Z,96741.75
2022-11-26T15:11:05.290Z,96750.19
2022-11-26T15:13:38.552Z,96746.41
2022-11-26T15:16:27.491Z,96755.41
2022-11-26T15:18:57.518Z,96757.56
2022-11-26T15:21:27.999Z,96766.28
2022-11-26T15:23:59.189Z,96758.53
2022-11-26T15:26:32.903Z,96764.78
2022-11-26T15:29:00.679Z,96775.81
2022-11-26T15:31:40.482Z,96772.41
2022-11-26T15:34:13.270Z,96766.31
2022-11-26T15:36:41.264Z,96765.16
2022-11-26T15:39:25.917Z,96774.69
2022-11-26T15:41:56.034Z,96782.41
2022-11-26T15:44:26.280Z,96774.38
2022-11-26T15:46:56.797Z,96772.97
2022-11-26T15:49:29.284Z,96771.91
2022-11-26T15:52:03.622Z,96770.09
2022-11-26T15:54:56.563Z,96770.94
2022-11-26T15:57:28.197Z,96765.59
2022-11-26T15:59:59.030Z,96767.06
2022-11-26T16:02:28.716Z,96772.44
2022-11-26T16:04:59.164Z,96774.09
2022-11-26T16:07:28.881Z,96782.56
2022-11-26T16:10:13.369Z,96774.94
2022-11-26T16:12:44.578Z,96768.75
2022-11-26T16:15:23.735Z,96769.59
2022-11-26T16:17:52.124Z,96767.53
2022-11-26T16:20:23.413Z,96757.81
2022-11-26T16:22:54.438Z,96764.22
2022-11-26T16:25:25.063Z,96759.03
2022-11-26T16:28:15.301Z,96767.06
2022-11-26T16:30:45.011Z,96761.69
2022-11-26T16:33:12.797Z,96752.19
2022-11-26T16:35:45.793Z,96758.78
2022-11-26T16:38:20.765Z,96755.66
2022-11-26T16:40:48.757Z,96761.44
2022-11-26T16:43:16.516Z,96767.38
2022-11-26T16:45:44.670Z,96762.88
2022-11-26T16:48:24.049Z,96760.16
2022-11-26T16:50:53.417Z,96765.91
2022-11-26T16:53:21.083Z,96763.22
2022-11-26T16:55:49.816Z,96763.16
2022-11-26T16:58:28.169Z,96756.16
2022-11-26T17:00:57.183Z,96765.16
2022-11-26T17:03:27.429Z,96760.78
2022-11-26T17:05:59.413Z,96756.22
2022-11-26T17:08:28.147Z,96756.97
2022-11-26T17:10:55.921Z,96766.19
2022-11-26T17:13:23.884Z,96756.25
2022-11-26T17:15:52.171Z,96774.19
2022-11-26T17:18:22.092Z,96759.88
2022-11-26T17:20:51.151Z,96764.13
2022-11-26T17:23:20.450Z,96767.25
2022-11-26T17:25:52.972Z,96760.63
2022-11-26T17:28:23.130Z,96761.84
2022-11-26T17:30:51.433Z,96751.31
2022-11-26T17:33:20.001Z,96758.03
2022-11-26T17:35:48.116Z,96760.50
2022-11-26T17:38:18.124Z,96758.19
2022-11-26T17:40:47.928Z,96765.16
2022-11-26T17:43:16.970Z,96758.50
2022-11-26T17:45:45.247Z,96758.88
2022-11-26T17:48:14.616Z,96758.41
2022-11-26T17:50:42.741Z,96766.00
2022-11-26T17:53:10.683Z,96770.97
2022-11-26T17:55:39.698Z,96752.63
2022-11-26T17:58:10.979Z,96761.88
2022-11-26T18:00:39.002Z,96766.19
2022-11-26T18:03:07.071Z,96762.00
2022-11-26T18:05:37.876Z,96761.13
2022-11-26T18:08:08.317Z,96764.38
2022-11-26T18:10:36.074Z,96769.09
2022-11-26T18:13:03.846Z,96770.31
2022-11-26T18:15:33.138Z,96775.44
2022-11-26T18:18:00.886Z,96767.34
2022-11-26T18:20:29.922Z,96769.97
2022-11-26T18:22:59.818Z,96774.94
2022-11-26T18:25:28.501Z,96779.19
2022-11-26T18:27:56.588Z,96776.94
2022-11-26T18:30:24.684Z,96781.84
2022-11-26T18:32:53.886Z,96788.75
2022-11-26T18:35:22.903Z,96795.28
2022-11-26T18:37:51.150Z,96786.41
2022-11-26T18:40:19.052Z,96790.03
2022-11-26T18:42:46.824Z,96795.56
2022-11-26T18:45:16.165Z,96790.53
2022-11-26T18:47:44.431Z,96796.81
2022-11-26T18:50:14.186Z,96800.19
2022-11-26T18:52:41.942Z,96791.84
2022-11-26T18:55:13.997Z,96803.81
2022-11-26T18:58:07.748Z,96798.78
2022-11-26T19:00:35.848Z,96798.06
2022-11-26T19:03:03.601Z,96795.13
2022-11-26T19:05:32.740Z,96786.50
2022-11-26T19:08:00.629Z,96792.66
2022-11-26T19:10:28.480Z,96788.66
2022-11-26T19:12:56.330Z,96791.63
2022-11-26T19:15:24.544Z,96793.09
2022-11-26T19:17:52.371Z,96791.78
2022-11-26T19:20:20.509Z,96792.72
2022-11-26T19:22:49.760Z,96792.47
2022-11-26T19:25:17.521Z,96802.38
2022-11-26T19:27:45.240Z,96804.97
2022-11-26T19:30:17.270Z,96800.38
2022-11-26T19:32:45.196Z,96797.59
2022-11-26T19:35:14.023Z,96789.78
2022-11-26T19:37:43.427Z,96793.50
2022-11-26T19:40:13.249Z,96797.34
2022-11-26T19:42:40.942Z,96793.28
2022-11-26T19:45:10.205Z,96786.13
2022-11-26T19:47:37.945Z,96795.13
2022-11-26T19:50:06.816Z,96786.13
2022-11-26T19:52:34.574Z,96782.00
2022-11-26T19:55:02.290Z,96788.34
2022-11-26T19:57:31.494Z,96781.38
2022-11-26T19:59:59.343Z,96779.88
2022-11-26T20:02:27.274Z,96776.41
2022-11-26T20:04:56.646Z,96771.97
2022-11-26T20:07:24.423Z,96765.81
2022-11-26T20:09:53.255Z,96764.81
2022-11-26T20:12:21.099Z,96758.19
2022-11-26T20:14:50.443Z,96754.50
2022-11-26T20:17:18.575Z,96764.56
2022-11-26T20:19:47.076Z,96765.56
2022-11-26T20:22:14.837Z,96770.72
2022-11-26T20:24:42.843Z,96767.41
2022-11-26T20:27:10.783Z,96775.84
2022-11-26T20:29:38.712Z,96768.94
2022-11-26T20:32:10.132Z,96767.28
2022-11-26T20:34:38.218Z,96759.84
2022-11-26T20:37:06.277Z,96757.28
2022-11-26T20:39:34.257Z,96753.97
2022-11-26T20:42:02.133Z,96757.00
2022-11-26T20:44:30.389Z,96754.69
2022-11-26T20:46:58.285Z,96752.22
2022-11-26T20:49:32.221Z,96758.13
2022-11-26T20:52:02.197Z,96757.53
2022-11-26T20:54:30.260Z,96749.75
2022-11-26T20:56:58.376Z,96746.34
2022-11-26T20:59:26.706Z,96740.19
2022-11-26T21:01:54.625Z,96742.38
2022-11-26T21:04:22.588Z,96740.94
2022-11-26T21:06:51.884Z,96747.00
2022-11-26T21:09:19.885Z,96745.53
2022-11-26T21:11:47.915Z,96748.38
2022-11-26T21:14:15.823Z,96742.56
2022-11-26T21:16:43.848Z,96755.34
2022-11-26T21:19:12.699Z,96747.47
2022-11-26T21:21:40.747Z,96737.88
2022-11-26T21:24:10.581Z,96730.88
2022-11-26T21:26:38.433Z,96725.97
2022-11-26T21:29:08.278Z,96736.63
2022-11-26T21:31:36.082Z,96735.78
2022-11-26T21:34:07.142Z,96734.13
2022-11-26T21:36:37.319Z,96735.50
2022-11-26T21:39:07.540Z,96731.72
2022-11-26T21:41:37.290Z,96734.50
2022-11-26T21:44:07.753Z,96734.22
2022-11-26T21:46:38.784Z,96731.63
2022-11-26T21:49:07.712Z,96731.19
2022-11-26T21:51:35.605Z,96736.69
2022-11-26T21:54:03.437Z,96730.72
2022-11-26T21:56:32.496Z,96726.22
2022-11-26T21:59:03.727Z,96716.56
2022-11-26T22:01:33.231Z,96715.09
2022-11-26T22:04:03.513Z,96714.25
2022-11-26T22:06:31.499Z,96709.13
2022-11-26T22:08:59.288Z,96717.75
2022-11-26T22:11:29.010Z,96721.97
2022-11-26T22:13:56.941Z,96720.13
2022-11-26T22:16:27.686Z,96719.59
2022-11-26T22:18:57.088Z,96723.91
2022-11-26T22:21:29.164Z,96722.06
2022-11-26T22:23:57.454Z,96724.28
2022-11-26T22:26:28.185Z,96719.78
2022-11-26T22:28:56.117Z,96723.72
2022-11-26T22:31:26.864Z,96716.94
2022-11-26T22:33:55.976Z,96722.44
2022-11-26T22:36:24.123Z,96725.44
2022-11-26T22:38:52.531Z,96724.19
2022-11-26T22:41:21.158Z,96727.03
2022-11-26T22:43:49.620Z,96729.56
2022-11-26T22:46:20.156Z,96731.22
2022-11-26T22:48:52.329Z,96742.25
2022-11-26T22:51:21.116Z,96747.56
2022-11-26T22:53:51.259Z,96746.91
2022-11-26T22:56:19.621Z,96742.97
2022-11-26T23:03:43.055Z,96737.41
2022-11-26T23:06:12.862Z,96738.88
2022-11-26T23:08:41.617Z,96732.25
2022-11-26T23:11:10.988Z,96732.09
2022-11-26T23:13:41.736Z,96726.41
2022-11-26T23:16:10.154Z,96726.94
2022-11-26T23:18:39.342Z,96718.97
2022-11-26T23:21:10.067Z,96717.69
2022-11-26T23:23:39.591Z,96713.53
2022-11-26T23:26:08.818Z,96708.06
2022-11-26T23:28:37.615Z,96710.53
2022-11-26T23:31:08.262Z,96701.34
2022-11-26T23:33:36.805Z,96703.81
2022-11-26T23:36:04.997Z,96696.66
2022-11-26T23:38:34.059Z,96699.72
2022-11-26T23:41:03.359Z,96697.59
2022-11-26T23:43:32.510Z,96697.41
2022-11-26T23:46:04.105Z,96697.41
2022-11-26T23:48:32.550Z,96699.88
2022-11-26T23:51:00.709Z,96699.16
2022-11-26T23:53:28.597Z,96694.28
2022-11-26T23:56:02.661Z,96686.66
2022-11-26T23:58:30.339Z,96678.31
